Time;durP1;ratioP1;P1;durP2;ratioP2;P2;SDS_P1;SDS_P2;PMS_P1;PMS_P2;Temp;Humidity;BMP_temperature;BMP_pressure;BME280_temperature;BME280_humidity;BME280_pressure;Samples;Min_cycle;Max_cycle;Signal;HPM_P1;HPM_P2
2022/01/18 00:00:27;;;;;;;10.32;5.88;;;;;;;0.65;100.00;93298.19;5030855;28;20118;-81
2022/01/18 00:02:55;;;;;;;9.82;5.50;;;;;;;0.40;100.00;93303.00;5030728;28;20071;-82
2022/01/18 00:05:22;;;;;;;9.32;5.80;;;;;;;0.45;100.00;93310.97;5030441;28;20053;-81
2022/01/18 00:07:49;;;;;;;12.20;6.75;;;;;;;0.52;100.00;93301.06;5030644;28;20060;-81
2022/01/18 00:10:16;;;;;;;10.25;6.25;;;;;;;0.46;100.00;93301.66;5030398;28;20049;-81
2022/01/18 00:12:56;;;;;;;12.30;6.32;;;;;;;0.32;100.00;93321.41;5030553;28;20076;-82
2022/01/18 00:15:40;;;;;;;13.98;7.13;;;;;;;0.16;100.00;93329.66;5030430;28;20053;-81
2022/01/18 00:18:10;;;;;;;13.40;5.85;;;;;;;0.08;100.00;93334.59;5030399;28;20050;-81
2022/01/18 00:20:46;;;;;;;14.02;6.38;;;;;;;0.08;100.00;93349.75;5035691;28;20051;-81
2022/01/18 00:23:12;;;;;;;8.80;5.20;;;;;;;0.06;100.00;93344.06;5054207;28;20041;-83
2022/01/18 00:25:40;;;;;;;10.05;6.07;;;;;;;0.12;100.00;93333.38;5054121;28;20485;-82
2022/01/18 00:28:07;;;;;;;8.10;3.80;;;;;;;0.13;100.00;93319.81;5054421;28;20068;-82
2022/01/18 00:30:58;;;;;;;6.10;3.45;;;;;;;0.12;100.00;93336.72;5054147;28;20099;-82
2022/01/18 00:33:37;;;;;;;15.13;5.15;;;;;;;0.26;100.00;93339.69;5053775;28;20080;-81
2022/01/18 00:36:06;;;;;;;11.77;4.22;;;;;;;0.31;100.00;93344.28;5053870;28;20100;-82
2022/01/18 00:38:44;;;;;;;10.98;4.15;;;;;;;0.29;100.00;93336.88;5054034;28;20148;-82
2022/01/18 00:41:11;;;;;;;7.90;3.55;;;;;;;0.16;100.00;93332.19;5053835;28;20455;-81
2022/01/18 00:43:38;;;;;;;5.50;3.40;;;;;;;0.14;100.00;93336.59;5053792;28;20459;-82
2022/01/18 00:46:07;;;;;;;6.40;4.00;;;;;;;0.15;100.00;93329.78;5053679;28;20053;-81
2022/01/18 00:48:35;;;;;;;4.57;3.35;;;;;;;0.11;100.00;93336.84;5054028;28;20087;-81
2022/01/18 00:51:04;;;;;;;4.15;3.17;;;;;;;-0.03;100.00;93311.16;5053685;28;20060;-81
2022/01/18 00:53:32;;;;;;;6.28;4.35;;;;;;;-0.16;100.00;93303.13;5035382;28;20428;-81
2022/01/18 00:56:11;;;;;;;7.70;3.30;;;;;;;-0.13;100.00;93323.03;5033639;28;20137;-85
2022/01/18 00:58:39;;;;;;;6.38;3.53;;;;;;;-0.24;100.00;93316.44;5033969;28;20095;-81
2022/01/18 01:01:07;;;;;;;6.75;4.20;;;;;;;-0.22;100.00;93327.22;5033588;28;20497;-80
2022/01/18 01:03:35;;;;;;;3.90;2.90;;;;;;;-0.19;100.00;93326.91;5033526;28;20061;-88
2022/01/18 01:06:02;;;;;;;4.40;3.03;;;;;;;-0.22;100.00;93327.22;5033548;28;20064;-80
2022/01/18 01:08:29;;;;;;;3.53;2.75;;;;;;;-0.24;100.00;93343.44;5033477;28;20488;-80
2022/01/18 01:10:56;;;;;;;4.22;3.00;;;;;;;-0.34;100.00;93346.78;5033487;28;20049;-80
2022/01/18 01:13:23;;;;;;;5.05;2.90;;;;;;;-0.22;100.00;93356.69;5033324;28;20549;-81
2022/01/18 01:16:04;;;;;;;3.78;2.50;;;;;;;-0.28;100.00;93346.22;5033514;28;20136;-83
2022/01/18 01:18:43;;;;;;;3.60;2.40;;;;;;;-0.10;100.00;93364.91;5033180;28;20060;-81
2022/01/18 01:32:30;;;;;;;4.45;2.45;;;;;;;-0.53;100.00;93385.50;5031014;28;20119;-80
2022/01/18 01:35:07;;;;;;;5.22;2.58;;;;;;;-0.73;100.00;93403.22;5033282;28;20539;-80
2022/01/18 01:43:11;;;;;;;3.50;1.63;;;;;;;-0.97;100.00;93418.78;5032994;28;20132;-82
2022/01/18 01:45:40;;;;;;;2.20;1.27;;;;;;;-1.10;100.00;93424.88;5032862;28;20046;-80
2022/01/18 01:48:08;;;;;;;3.45;1.42;;;;;;;-1.18;100.00;93457.50;5032834;28;20045;-80
2022/01/18 01:50:44;;;;;;;3.58;1.73;;;;;;;-1.20;100.00;93436.69;5032637;28;20041;-80
2022/01/18 01:53:13;;;;;;;4.43;2.20;;;;;;;-1.23;100.00;93444.50;5032919;28;20455;-79
2022/01/18 01:55:41;;;;;;;3.28;1.25;;;;;;;-1.31;100.00;93424.22;5032746;28;20049;-81
2022/01/18 01:58:09;;;;;;;2.92;1.35;;;;;;;-1.34;100.00;93442.91;5012465;28;20072;-81
2022/01/18 02:00:44;;;;;;;2.65;1.17;;;;;;;-1.45;100.00;93416.09;5032441;28;20045;-82
2022/01/18 02:03:10;;;;;;;3.30;1.30;;;;;;;-1.61;98.57;93444.31;5032849;28;20072;-81
2022/01/18 02:05:39;;;;;;;1.90;1.15;;;;;;;-1.66;98.82;93454.00;5032500;28;20413;-80
2022/01/18 02:08:07;;;;;;;3.63;1.15;;;;;;;-1.64;96.80;93447.91;5032553;28;20415;-81
2022/01/18 02:10:35;;;;;;;5.35;1.10;;;;;;;-1.67;95.95;93448.16;5032487;28;20077;-80
2022/01/18 02:13:02;;;;;;;2.17;1.10;;;;;;;-1.81;96.27;93419.09;5032265;28;20389;-79
2022/01/18 02:15:29;;;;;;;2.72;1.30;;;;;;;-1.78;93.67;93433.94;5032098;28;20484;-80
2022/01/18 02:23:30;;;;;;;1.95;1.00;;;;;;;-2.19;87.05;93428.91;5051949;28;20515;-81
2022/01/18 02:25:57;;;;;;;1.95;1.08;;;;;;;-2.01;87.96;93458.50;5051674;28;20095;-82
2022/01/18 02:28:26;;;;;;;1.88;1.02;;;;;;;-1.93;86.31;93465.44;5052151;28;20132;-80
2022/01/18 02:30:54;;;;;;;2.20;1.15;;;;;;;-1.97;86.06;93491.78;5051754;28;20049;-80
2022/01/18 02:33:20;;;;;;;1.98;0.98;;;;;;;-2.05;84.87;93497.44;5051837;28;20462;-80
2022/01/18 02:35:49;;;;;;;1.80;1.00;;;;;;;-2.11;84.80;93495.44;5035963;28;20049;-84
2022/01/18 02:38:16;;;;;;;3.42;1.23;;;;;;;-2.20;84.72;93515.41;5031638;28;20068;-81
2022/01/18 02:40:43;;;;;;;1.63;0.98;;;;;;;-2.36;84.59;93498.19;5031683;28;20049;-81
2022/01/18 02:46:07;;;;;;;2.25;1.08;;;;;;;-2.38;85.12;93510.13;4989985;28;20169;-79
2022/01/18 02:48:34;;;;;;;4.78;2.25;;;;;;;-2.43;86.02;93517.25;5021473;28;20045;-81
2022/01/18 02:51:02;;;;;;;2.60;1.10;;;;;;;-2.49;85.54;93510.19;5031496;28;20049;-81
2022/01/18 02:53:29;;;;;;;1.83;1.20;;;;;;;-2.42;85.59;93538.94;5031652;28;20085;-86
2022/01/18 02:55:58;;;;;;;3.55;1.80;;;;;;;-2.50;85.89;93546.31;5031421;28;20046;-81
2022/01/18 02:58:28;;;;;;;2.63;1.40;;;;;;;-2.53;86.85;93576.75;5031561;28;20061;-82
2022/01/18 03:03:48;;;;;;;9.38;1.55;;;;;;;-2.70;87.77;93579.66;5007023;28;20131;-81
2022/01/18 03:06:16;;;;;;;3.40;1.23;;;;;;;-2.64;87.28;93570.03;5031315;28;20057;-80
2022/01/18 03:08:43;;;;;;;2.58;1.45;;;;;;;-2.69;87.63;93590.50;5031351;28;20053;-81
2022/01/18 03:11:10;;;;;;;2.00;1.13;;;;;;;-2.91;88.56;93566.25;5031255;28;20480;-81
2022/01/18 03:13:36;;;;;;;2.80;1.40;;;;;;;-2.86;88.84;93595.13;5031052;28;20060;-83
2022/01/18 03:16:04;;;;;;;3.33;1.50;;;;;;;-2.95;90.85;93580.75;5031148;28;20484;-82
2022/01/18 03:18:30;;;;;;;2.10;1.40;;;;;;;-2.90;89.48;93586.25;5031319;28;20060;-85
2022/01/18 03:20:57;;;;;;;3.78;1.10;;;;;;;-2.93;89.77;93583.94;5036915;28;20091;-82
2022/01/18 03:23:25;;;;;;;2.30;1.10;;;;;;;-2.88;89.44;93601.22;5051028;28;20052;-84
2022/01/18 03:25:55;;;;;;;3.00;1.30;;;;;;;-3.05;90.29;93595.75;5050804;28;20416;-82
2022/01/18 03:28:23;;;;;;;2.75;1.30;;;;;;;-2.96;90.59;93601.78;5050697;28;20068;-82
2022/01/18 03:30:54;;;;;;;4.70;1.73;;;;;;;-3.06;90.81;93601.69;5050978;28;20045;-82
2022/01/18 03:33:23;;;;;;;3.33;1.73;;;;;;;-3.02;91.35;93605.56;5050932;28;20045;-81
2022/01/18 03:35:51;;;;;;;5.88;2.55;;;;;;;-3.06;90.99;93615.97;5050825;28;20535;-82
2022/01/18 03:38:21;;;;;;;10.23;4.82;;;;;;;-3.11;91.20;93606.25;5050709;28;20430;-83
2022/01/18 03:40:49;;;;;;;3.85;1.42;;;;;;;-3.06;90.70;93614.25;5050574;28;20045;-83
2022/01/18 03:43:18;;;;;;;2.80;1.50;;;;;;;-3.02;90.81;93623.16;5040079;28;20047;-81
2022/01/18 03:45:46;;;;;;;12.13;5.90;;;;;;;-3.20;90.63;93604.44;5050786;28;20491;-82
2022/01/18 03:48:23;;;;;;;8.32;3.90;;;;;;;-3.13;90.80;93616.44;5050497;28;20049;-82
2022/01/18 03:50:50;;;;;;;4.60;1.95;;;;;;;-3.24;91.41;93591.31;5050653;28;20045;-82
2022/01/18 03:53:19;;;;;;;6.40;2.67;;;;;;;-3.16;91.11;93604.09;5050441;28;20048;-82
2022/01/18 03:55:46;;;;;;;3.08;1.33;;;;;;;-3.04;90.52;93624.19;5053277;28;20081;-81
2022/01/18 03:58:14;;;;;;;12.13;5.72;;;;;;;-3.10;91.01;93630.50;5054905;28;20057;-82
2022/01/18 04:00:42;;;;;;;7.72;3.67;;;;;;;-3.14;91.00;93639.16;5054860;28;20053;-82
2022/01/18 04:03:09;;;;;;;10.85;5.40;;;;;;;-3.11;91.24;93641.44;5054770;28;20049;-83
2022/01/18 04:05:35;;;;;;;7.38;3.72;;;;;;;-3.13;90.16;93649.13;5043642;28;20096;-82
2022/01/18 04:08:02;;;;;;;6.00;3.08;;;;;;;-3.13;90.24;93653.31;5034584;28;20045;-82
2022/01/18 04:10:29;;;;;;;3.88;1.55;;;;;;;-3.20;90.82;93660.50;5034835;28;20057;-86
2022/01/18 04:12:56;;;;;;;7.72;3.72;;;;;;;-3.22;90.98;93644.75;5034708;28;20049;-82
2022/01/18 04:15:24;;;;;;;7.75;4.00;;;;;;;-3.22;90.92;93673.22;5034548;28;20049;-83
2022/01/18 04:18:08;;;;;;;4.68;2.70;;;;;;;-3.36;91.31;93649.13;5034664;28;20053;-83
2022/01/18 04:26:52;;;;;;;6.35;3.30;;;;;;;-3.34;92.01;93684.16;5054256;28;20067;-82
2022/01/18 04:28:52;;;;;;;4.47;2.50;;;;;;;-3.32;92.03;93697.41;5054017;28;20103;-82
2022/01/18 04:31:20;;;;;;;17.05;8.82;;;;;;;-3.31;91.53;93704.03;5054296;28;20044;-82
2022/01/18 04:33:47;;;;;;;8.30;4.50;;;;;;;-3.29;91.13;93703.94;5053980;28;20041;-82
2022/01/18 04:36:14;;;;;;;3.50;2.20;;;;;;;-3.22;90.89;93715.13;5054293;28;20091;-83
2022/01/18 04:38:41;;;;;;;5.95;2.63;;;;;;;-3.18;89.82;93724.03;5053989;28;20063;-85
2022/01/18 04:41:12;;;;;;;6.13;3.78;;;;;;;-3.27;90.31;93714.66;5053865;28;20492;-83
2022/01/18 04:44:03;;;;;;;6.35;3.70;;;;;;;-3.20;89.72;93735.13;5054087;28;20053;-82
2022/01/18 04:49:16;;;;;;;3.92;1.80;;;;;;;-3.45;90.38;93742.72;5053849;28;20064;-82
2022/01/18 04:51:45;;;;;;;3.80;1.90;;;;;;;-3.39;92.13;93769.91;5053594;28;20053;-82
2022/01/18 04:54:12;;;;;;;2.92;1.65;;;;;;;-3.32;91.07;93772.78;5053629;28;20045;-82
2022/01/18 04:59:23;;;;;;;5.38;2.80;;;;;;;-3.44;91.45;93768.63;5043813;28;20060;-83
2022/01/18 05:01:51;;;;;;;11.63;5.28;;;;;;;-3.39;92.08;93774.13;5027643;28;20045;-83
2022/01/18 05:04:18;;;;;;;9.48;5.32;;;;;;;-3.45;91.67;93772.84;5013867;28;20071;-82
2022/01/18 05:06:45;;;;;;;3.30;1.85;;;;;;;-3.40;91.87;93770.00;5013814;28;20054;-82
2022/01/18 05:09:12;;;;;;;7.38;4.13;;;;;;;-3.43;92.12;93776.06;5021527;28;20053;-82
2022/01/18 05:11:49;;;;;;;4.10;2.53;;;;;;;-3.41;92.12;93780.97;5033625;28;20054;-82
2022/01/18 05:14:25;;;;;;;5.65;3.20;;;;;;;-3.47;92.24;93776.38;5033583;28;20049;-82
2022/01/18 05:17:00;;;;;;;5.47;3.10;;;;;;;-3.49;92.41;93774.78;5033434;28;20060;-83
2022/01/18 05:19:39;;;;;;;3.20;1.98;;;;;;;-3.45;92.44;93805.50;5031316;28;20060;-82
2022/01/18 05:24:51;;;;;;;6.60;3.55;;;;;;;-3.39;92.07;93819.31;5030240;28;20059;-83
2022/01/18 05:27:18;;;;;;;7.25;3.30;;;;;;;-3.34;92.30;93834.88;5032678;28;20045;-83
2022/01/18 05:29:45;;;;;;;3.90;2.10;;;;;;;-3.39;91.94;93827.69;5029966;28;20099;-83
2022/01/18 05:32:13;;;;;;;6.82;3.03;;;;;;;-3.46;93.22;93831.53;5032553;28;20038;-83
2022/01/18 05:34:40;;;;;;;6.85;4.22;;;;;;;-3.25;93.66;93829.22;5032331;28;20140;-83
2022/01/18 05:37:07;;;;;;;12.07;6.47;;;;;;;-3.11;92.45;93839.97;5032286;28;20099;-83
2022/01/18 05:39:34;;;;;;;6.80;4.03;;;;;;;-3.02;91.16;93856.13;5032160;28;20057;-84
2022/01/18 05:42:00;;;;;;;16.13;8.15;;;;;;;-2.93;91.51;93852.94;5032207;28;20495;-84
2022/01/18 05:44:27;;;;;;;81.57;43.22;;;;;;;-2.89;91.02;93851.78;5032405;28;20049;-82
2022/01/18 05:46:54;;;;;;;46.63;25.67;;;;;;;-2.79;90.79;93853.66;5032532;28;20050;-82
2022/01/18 05:49:22;;;;;;;18.13;9.38;;;;;;;-2.75;91.99;93849.97;5032217;28;20600;-82
2022/01/18 05:51:49;;;;;;;11.88;6.43;;;;;;;-2.67;91.53;93872.06;5032160;28;20108;-82
2022/01/18 05:54:16;;;;;;;27.83;14.10;;;;;;;-2.59;90.71;93879.84;5032571;28;20395;-82
2022/01/18 05:56:43;;;;;;;49.58;26.55;;;;;;;-2.55;91.42;93874.47;5031930;28;20401;-83
2022/01/18 05:59:10;;;;;;;36.72;19.88;;;;;;;-2.55;91.50;93874.47;5031949;28;20091;-83
2022/01/18 06:01:46;;;;;;;47.63;24.20;;;;;;;-2.57;91.41;93888.06;5031927;28;20401;-82
2022/01/18 06:06:49;;;;;;;58.45;28.42;;;;;;;-2.71;91.89;93862.22;5032014;28;20045;-83
2022/01/18 06:07:03;;;;;;;65.60;32.33;;;;;;;-2.71;91.13;93881.53;5031555;28;20132;-83
2022/01/18 06:09:30;;;;;;;76.40;36.53;;;;;;;-2.83;91.86;93885.72;5031856;28;20041;-83
2022/01/18 06:11:57;;;;;;;62.03;32.35;;;;;;;-2.85;91.86;93895.94;5031869;28;20046;-83
2022/01/18 06:14:24;;;;;;;66.57;35.65;;;;;;;-2.85;93.11;93902.66;5031745;28;20099;-83
2022/01/18 06:16:51;;;;;;;60.00;30.77;;;;;;;-2.88;92.80;93898.66;5031301;28;20049;-83
2022/01/18 06:19:17;;;;;;;63.88;31.13;;;;;;;-2.96;91.67;93910.97;5031581;28;20412;-83
2022/01/18 06:21:44;;;;;;;59.13;29.77;;;;;;;-3.07;93.39;93888.31;5028826;28;20045;-83
2022/01/18 06:24:12;;;;;;;41.85;23.20;;;;;;;-3.02;93.41;93922.25;5031664;28;20053;-84
2022/01/18 06:26:40;;;;;;;28.23;14.95;;;;;;;-3.02;93.29;93926.50;5031439;28;20478;-83
2022/01/18 06:29:07;;;;;;;36.42;19.63;;;;;;;-3.29;92.17;93892.34;5031784;28;20053;-83
2022/01/18 06:31:34;;;;;;;40.70;22.65;;;;;;;-2.99;93.06;93936.31;5031898;28;20052;-83
2022/01/18 06:34:00;;;;;;;38.95;21.95;;;;;;;-3.37;92.75;93936.38;5032144;28;20139;-83
2022/01/18 06:36:27;;;;;;;36.65;19.98;;;;;;;-3.24;93.26;93935.56;5031863;28;20052;-84
2022/01/18 06:38:54;;;;;;;25.23;13.73;;;;;;;-3.20;93.11;93936.13;5027474;28;20057;-84
2022/01/18 06:41:22;;;;;;;24.85;13.70;;;;;;;-3.14;93.54;93925.66;5051642;28;20049;-83
2022/01/18 06:43:50;;;;;;;12.45;6.97;;;;;;;-3.11;92.88;93935.47;5051706;28;20455;-84
2022/01/18 06:46:17;;;;;;;16.00;9.00;;;;;;;-3.04;93.88;93926.59;5051512;28;20408;-83
2022/01/18 06:48:44;;;;;;;24.40;12.60;;;;;;;-2.99;93.20;93933.81;5051702;28;20068;-83
2022/01/18 06:51:12;;;;;;;14.13;7.28;;;;;;;-2.93;91.73;93935.88;5051747;28;20040;-83
2022/01/18 06:53:45;;;;;;;8.75;4.25;;;;;;;-3.11;91.04;93940.50;5051556;28;20049;-83
2022/01/18 06:56:13;;;;;;;8.07;5.28;;;;;;;-2.99;91.39;93937.13;5051497;28;20049;-83
2022/01/18 06:58:42;;;;;;;11.68;6.32;;;;;;;-2.93;90.43;93942.66;5051245;28;20053;-83
2022/01/18 07:01:10;;;;;;;62.10;29.33;;;;;;;-2.95;90.86;93953.59;5051705;28;20048;-83
2022/01/18 07:03:37;;;;;;;42.03;21.63;;;;;;;-2.84;91.95;93945.28;5051591;28;20473;-82
2022/01/18 07:06:04;;;;;;;25.23;14.55;;;;;;;-2.64;92.37;93948.06;5051287;28;20052;-84
2022/01/18 07:08:31;;;;;;;25.27;16.75;;;;;;;-2.46;91.36;93952.72;5051057;28;20057;-84
2022/01/18 07:10:59;;;;;;;6.05;3.72;;;;;;;-2.35;87.58;93957.75;5051167;28;20049;-83
2022/01/18 07:13:26;;;;;;;17.73;10.07;;;;;;;-2.32;84.79;93965.06;5051098;28;20056;-83
2022/01/18 07:15:54;;;;;;;17.48;10.02;;;;;;;-2.08;86.77;93971.72;5051091;28;20059;-83
2022/01/18 07:18:21;;;;;;;8.30;3.42;;;;;;;-2.21;85.04;93931.59;5051114;28;20053;-82
2022/01/18 07:20:48;;;;;;;10.25;5.68;;;;;;;-1.67;85.03;93986.41;5051081;28;20056;-82
2022/01/18 07:23:14;;;;;;;10.30;5.57;;;;;;;-1.45;86.99;93989.84;5050977;28;20411;-82
2022/01/18 07:25:44;;;;;;;6.95;4.40;;;;;;;-1.29;83.00;93992.75;5050784;28;20451;-83
2022/01/18 07:28:12;;;;;;;10.27;5.53;;;;;;;-1.16;84.93;93991.84;5050810;28;20084;-83
2022/01/18 07:30:40;;;;;;;10.32;5.03;;;;;;;-0.96;84.54;93993.59;5050828;28;20506;-82
2022/01/18 07:33:08;;;;;;;9.98;5.90;;;;;;;-0.83;84.09;94005.28;5051035;28;20049;-83
2022/01/18 07:35:36;;;;;;;9.10;4.93;;;;;;;-0.74;85.64;94003.75;5050745;28;20049;-82
2022/01/18 07:38:03;;;;;;;10.38;5.47;;;;;;;-0.60;84.80;93997.63;5050880;28;20056;-82
2022/01/18 07:40:32;;;;;;;20.67;8.63;;;;;;;-0.51;85.66;93993.56;5050686;28;20045;-82
2022/01/18 07:43:01;;;;;;;61.92;31.05;;;;;;;-0.47;81.83;94003.28;5050938;28;20049;-82
2022/01/18 07:45:29;;;;;;;95.40;40.33;;;;;;;-0.41;84.21;93990.16;5050734;28;20056;-82
2022/01/18 07:47:56;;;;;;;27.77;14.68;;;;;;;-0.44;84.31;94002.22;5050699;28;20053;-81
2022/01/18 07:50:24;;;;;;;16.63;8.95;;;;;;;-0.35;85.24;93990.59;5050585;28;20052;-81
2022/01/18 07:52:51;;;;;;;11.07;5.53;;;;;;;-0.45;83.05;93981.25;5048791;28;20049;-82
2022/01/18 07:55:18;;;;;;;7.32;3.70;;;;;;;-0.50;83.81;93985.88;5050759;28;20110;-81
2022/01/18 07:57:45;;;;;;;7.22;3.63;;;;;;;-0.26;84.85;94002.50;5050780;28;20796;-81
2022/01/18 08:00:14;;;;;;;15.13;7.32;;;;;;;-0.20;85.86;94001.19;5050526;28;20453;-81
2022/01/18 08:02:41;;;;;;;12.32;4.40;;;;;;;-0.27;83.80;94001.69;5050466;28;20049;-81
2022/01/18 08:05:10;;;;;;;6.00;2.85;;;;;;;-0.31;82.16;94012.97;5050589;28;21135;-82
2022/01/18 08:07:38;;;;;;;9.80;3.92;;;;;;;-0.22;85.11;94016.47;5050392;28;20053;-81
2022/01/18 08:10:08;;;;;;;9.23;4.50;;;;;;;-0.22;85.15;94001.31;5050613;28;20100;-81
2022/01/18 08:12:34;;;;;;;6.63;2.67;;;;;;;-0.15;83.04;94025.16;5050388;28;20045;-81
2022/01/18 08:15:11;;;;;;;6.03;3.67;;;;;;;0.08;83.58;94026.72;5050761;28;20068;-81
2022/01/18 08:17:38;;;;;;;6.25;2.90;;;;;;;0.31;83.33;94027.38;5050566;28;20423;-81
2022/01/18 08:20:06;;;;;;;7.60;3.00;;;;;;;0.05;80.92;94010.09;5050320;28;20060;-81
2022/01/18 08:22:32;;;;;;;6.28;2.80;;;;;;;0.25;82.47;94045.56;5050592;28;20049;-81
2022/01/18 08:25:01;;;;;;;10.48;5.60;;;;;;;0.36;81.96;94049.75;5050277;28;20049;-82
2022/01/18 08:27:27;;;;;;;7.10;3.17;;;;;;;0.46;82.58;94059.91;5050336;28;20072;-81
2022/01/18 08:29:54;;;;;;;5.22;2.33;;;;;;;0.32;81.29;94056.00;5050280;28;20045;-81
2022/01/18 08:32:22;;;;;;;6.35;2.85;;;;;;;-0.09;82.37;94054.16;5050233;28;20086;-80
2022/01/18 08:34:49;;;;;;;5.38;2.50;;;;;;;-0.46;85.97;94059.63;5050445;28;20123;-81
2022/01/18 08:37:16;;;;;;;6.63;2.50;;;;;;;-0.92;84.81;94069.84;5050497;28;20167;-81
2022/01/18 08:39:43;;;;;;;5.90;3.33;;;;;;;-1.06;88.12;94060.00;5050625;28;20049;-81
2022/01/18 08:42:14;;;;;;;13.63;6.20;;;;;;;-0.86;88.87;94066.03;5053327;28;20056;-83
2022/01/18 08:44:43;;;;;;;5.03;2.78;;;;;;;-0.78;88.16;94057.88;5054013;28;20049;-84
2022/01/18 08:47:10;;;;;;;5.82;2.80;;;;;;;-0.83;86.26;94048.16;5053781;28;20049;-81
2022/01/18 08:49:37;;;;;;;4.47;2.25;;;;;;;-0.87;86.56;94045.06;5054102;28;20049;-81
2022/01/18 08:52:05;;;;;;;6.10;2.67;;;;;;;-1.14;90.55;94046.25;5053915;28;20072;-80
2022/01/18 08:54:32;;;;;;;6.38;2.53;;;;;;;-1.10;89.23;94049.34;5053791;28;20130;-81
2022/01/18 08:56:59;;;;;;;6.00;2.97;;;;;;;-1.30;89.40;94054.16;5053939;28;20458;-81
2022/01/18 08:59:28;;;;;;;4.72;2.40;;;;;;;-1.21;90.30;94056.00;5053471;28;20048;-81
2022/01/18 09:01:55;;;;;;;4.43;2.53;;;;;;;-1.16;90.39;94052.34;5053529;28;20059;-81
2022/01/18 09:04:22;;;;;;;6.15;2.55;;;;;;;-1.18;90.34;94056.69;5053625;28;20045;-81
2022/01/18 09:06:50;;;;;;;4.60;2.55;;;;;;;-1.45;90.54;94048.56;5053518;28;20060;-80
2022/01/18 09:09:18;;;;;;;4.68;2.28;;;;;;;-1.38;89.84;94046.41;5053241;28;20048;-81
2022/01/18 09:11:45;;;;;;;3.35;1.85;;;;;;;-1.36;89.51;94040.34;5053329;28;20049;-81
2022/01/18 09:14:12;;;;;;;4.93;2.45;;;;;;;-1.03;89.97;94044.66;5053340;28;20045;-81
2022/01/18 09:16:40;;;;;;;3.67;2.15;;;;;;;-1.16;88.51;94042.25;5053225;28;21088;-81
2022/01/18 09:19:07;;;;;;;6.97;2.25;;;;;;;-1.11;90.92;94030.88;5054047;28;20049;-82
2022/01/18 09:21:34;;;;;;;4.20;1.88;;;;;;;-0.84;88.79;94038.97;5053571;28;20045;-82
2022/01/18 09:24:02;;;;;;;3.88;2.03;;;;;;;-0.78;86.93;94041.03;5053249;28;20049;-82
2022/01/18 09:26:29;;;;;;;6.20;2.92;;;;;;;-0.50;88.07;94051.50;5053175;28;20071;-82
2022/01/18 09:28:55;;;;;;;6.68;2.85;;;;;;;-0.36;88.29;94049.59;5053486;28;20084;-83
2022/01/18 09:31:22;;;;;;;7.50;4.88;;;;;;;-0.29;85.47;94036.34;5053399;28;20098;-82
2022/01/18 09:33:50;;;;;;;6.05;2.60;;;;;;;0.08;84.39;94046.94;5052971;28;20086;-82
2022/01/18 09:36:17;;;;;;;7.68;3.22;;;;;;;0.00;84.92;94045.06;5053012;28;20049;-83
2022/01/18 09:38:44;;;;;;;4.35;2.20;;;;;;;0.03;81.93;94036.41;5052980;28;20506;-81
2022/01/18 09:41:12;;;;;;;5.45;2.90;;;;;;;0.04;83.48;94043.06;5052623;28;20064;-81
2022/01/18 09:43:41;;;;;;;3.70;2.17;;;;;;;0.08;83.31;94032.59;5052833;28;20049;-81
2022/01/18 09:46:09;;;;;;;10.05;6.07;;;;;;;0.42;87.32;94030.75;5052872;28;20098;-82
2022/01/18 09:48:37;;;;;;;4.60;1.75;;;;;;;-0.09;80.88;94033.94;5052861;28;20048;-82
2022/01/18 09:51:05;;;;;;;5.38;2.90;;;;;;;-0.01;88.56;94029.09;5052769;28;20084;-81
2022/01/18 09:53:32;;;;;;;5.05;3.17;;;;;;;0.16;86.40;94028.63;5051552;28;20053;-82
2022/01/18 09:55:59;;;;;;;8.07;3.08;;;;;;;0.05;82.13;94024.47;5052621;28;20522;-82
2022/01/18 09:58:28;;;;;;;5.05;2.10;;;;;;;0.17;84.77;94028.50;5052724;28;20415;-80
2022/01/18 10:00:55;;;;;;;4.20;2.00;;;;;;;-0.22;86.51;94033.34;5052694;28;20045;-79
2022/01/18 10:03:25;;;;;;;3.38;1.77;;;;;;;-0.32;85.68;94008.03;5052403;28;20136;-82
2022/01/18 10:05:52;;;;;;;5.55;2.30;;;;;;;-0.24;87.66;94038.50;5052703;28;20064;-81
2022/01/18 10:08:20;;;;;;;4.65;1.90;;;;;;;-0.41;87.73;94040.66;5052175;28;20056;-82
2022/01/18 10:10:48;;;;;;;6.43;2.20;;;;;;;-0.27;88.69;94039.56;5052549;28;20079;-81
2022/01/18 10:13:18;;;;;;;4.45;1.80;;;;;;;-0.16;87.99;94035.38;5052484;28;20052;-83
2022/01/18 10:16:07;;;;;;;5.78;2.47;;;;;;;-0.28;86.46;94034.63;5052170;28;20052;-80
2022/01/18 10:18:46;;;;;;;4.88;2.22;;;;;;;-0.04;88.84;94031.84;5052002;28;20056;-82
2022/01/18 10:21:15;;;;;;;4.75;2.28;;;;;;;0.16;86.72;94028.63;5052562;28;20415;-81
2022/01/18 10:23:49;;;;;;;4.10;2.30;;;;;;;-0.02;86.21;94027.50;5052265;28;20190;-80
2022/01/18 10:26:21;;;;;;;4.60;2.83;;;;;;;-0.22;87.84;94019.00;5052082;28;20139;-82
2022/01/18 10:28:58;;;;;;;5.18;2.45;;;;;;;-0.37;88.58;94025.28;5051846;28;20049;-80
2022/01/18 10:31:28;;;;;;;4.80;2.15;;;;;;;-0.66;87.46;94018.28;5051917;28;20575;-81
2022/01/18 10:34:25;;;;;;;13.32;6.13;;;;;;;-0.74;86.56;94021.41;5051816;28;20099;-81
2022/01/18 10:37:01;;;;;;;5.15;2.47;;;;;;;-0.65;89.69;94030.75;5051959;28;20136;-81
2022/01/18 10:39:32;;;;;;;5.70;2.70;;;;;;;-0.77;87.54;94024.16;5051698;28;20491;-80
2022/01/18 10:41:59;;;;;;;6.20;2.40;;;;;;;-0.78;89.48;94020.84;5051744;28;20052;-82
2022/01/18 10:44:26;;;;;;;3.40;1.95;;;;;;;-0.97;86.87;93983.66;5051828;28;20094;-81
2022/01/18 10:46:54;;;;;;;5.32;2.45;;;;;;;-0.43;87.47;94034.13;5051793;28;20082;-81
2022/01/18 10:49:30;;;;;;;6.00;3.05;;;;;;;-0.32;88.12;94030.75;5051477;28;20174;-79
2022/01/18 10:51:59;;;;;;;5.45;2.72;;;;;;;-0.10;87.79;94032.34;5051382;28;20048;-81
2022/01/18 10:54:41;;;;;;;6.75;2.25;;;;;;;-0.17;84.11;94048.94;5051728;28;20053;-81
2022/01/18 10:57:11;;;;;;;4.75;2.30;;;;;;;-0.55;85.62;94043.47;5051577;28;20075;-80
2022/01/18 10:59:38;;;;;;;4.93;2.17;;;;;;;-0.28;84.64;94037.13;5051541;28;20045;-81
2022/01/18 11:02:14;;;;;;;7.30;2.63;;;;;;;-0.15;87.62;94044.53;5051370;28;20091;-82
2022/01/18 11:04:43;;;;;;;4.75;2.50;;;;;;;-0.10;83.87;94024.78;5051063;28;20108;-82
2022/01/18 11:07:11;;;;;;;9.15;3.83;;;;;;;0.23;84.17;94038.13;5051558;28;20115;-80
2022/01/18 11:09:40;;;;;;;4.10;2.63;;;;;;;0.24;85.70;94036.41;5051389;28;20624;-81
2022/01/18 11:12:09;;;;;;;6.95;2.67;;;;;;;0.34;85.78;94041.50;5051384;28;20072;-82
2022/01/18 11:14:38;;;;;;;5.40;2.72;;;;;;;0.45;85.52;94038.88;5051232;28;20049;-80
2022/01/18 11:17:08;;;;;;;6.78;2.50;;;;;;;0.24;84.89;94039.72;5051014;28;20442;-80
2022/01/18 11:19:37;;;;;;;8.38;3.28;;;;;;;0.50;84.82;94034.25;5051119;28;20404;-82
2022/01/18 11:22:08;;;;;;;7.15;2.70;;;;;;;0.49;82.97;94035.19;5051030;28;20084;-85
2022/01/18 11:24:42;;;;;;;9.23;3.70;;;;;;;0.39;84.10;94040.19;5051015;28;20052;-81
2022/01/18 11:27:13;;;;;;;6.47;2.80;;;;;;;0.43;83.05;94040.75;5051028;28;20427;-81
2022/01/18 11:29:41;;;;;;;7.60;3.10;;;;;;;0.48;82.73;94020.13;5050655;28;20053;-82
2022/01/18 11:32:10;;;;;;;4.88;2.30;;;;;;;0.45;82.74;94043.94;5051145;28;20121;-80
2022/01/18 11:34:55;;;;;;;5.63;2.40;;;;;;;0.51;84.03;94043.44;5050941;28;20057;-81
2022/01/18 11:37:33;;;;;;;6.22;1.95;;;;;;;0.46;82.27;94052.34;5050840;28;20053;-80
2022/01/18 11:40:06;;;;;;;4.45;2.60;;;;;;;0.48;81.96;94045.41;5048960;28;20049;-81
2022/01/18 11:42:50;;;;;;;6.47;3.10;;;;;;;0.66;81.61;94045.63;5050897;28;20056;-81
2022/01/18 11:45:34;;;;;;;11.30;2.70;;;;;;;0.69;79.96;94037.75;5050845;28;20060;-92
2022/01/18 11:48:05;;;;;;;8.00;3.10;;;;;;;0.49;81.27;94030.13;5050641;28;20090;-81
2022/01/18 11:50:33;;;;;;;5.40;2.83;;;;;;;0.27;81.35;94043.72;5050580;28;20059;-83
2022/01/18 11:53:41;;;;;;;4.80;2.42;;;;;;;-0.06;81.41;94051.38;5050932;28;20397;-81
2022/01/18 11:56:14;;;;;;;7.10;3.30;;;;;;;-0.10;83.52;94047.50;5021368;28;20049;-81
2022/01/18 11:58:43;;;;;;;7.75;4.20;;;;;;;-0.34;82.99;94052.78;5050475;28;20483;-81
2022/01/18 12:01:12;;;;;;;7.07;2.85;;;;;;;-0.70;81.20;94042.94;5050824;28;20094;-82
2022/01/18 12:03:48;;;;;;;7.50;3.70;;;;;;;-0.51;84.25;94044.81;5050739;28;20045;-80
2022/01/18 12:06:14;;;;;;;;;;;;;;;-0.59;80.64;94040.41;5051004;28;20041;-81
2022/01/18 12:08:42;;;;;;;5.82;2.55;;;;;;;-0.70;79.90;94045.47;5050511;28;19921;-81
2022/01/18 12:11:13;;;;;;;8.68;2.83;;;;;;;-0.52;80.48;94043.22;5050156;28;20060;-81
2022/01/18 12:13:47;;;;;;;5.72;2.92;;;;;;;-0.37;81.31;94035.38;5050726;28;20049;-81
2022/01/18 12:16:28;;;;;;;7.72;3.13;;;;;;;-0.30;79.62;94042.34;5051535;28;20479;-81
2022/01/18 12:19:05;;;;;;;10.05;4.80;;;;;;;-0.10;83.08;94029.03;5052029;28;20971;-82
2022/01/18 12:21:35;;;;;;;7.20;3.08;;;;;;;-0.05;78.09;94016.84;5052421;28;20091;-85
2022/01/18 12:24:21;;;;;;;6.75;2.78;;;;;;;0.06;77.47;94047.09;5053926;28;20056;-82